createdAt,value
2018-11-25T00:02:13.276Z,25.50
2018-11-25T00:04:41.518Z,23.80
2018-11-25T00:07:08.969Z,22.47
2018-11-25T00:09:36.438Z,23.27
2018-11-25T00:12:04.718Z,29.73
2018-11-25T00:14:32.181Z,20.03
2018-11-25T00:16:59.750Z,24.80
2018-11-25T00:19:27.219Z,23.50
2018-11-25T00:21:54.733Z,26.80
2018-11-25T00:24:22.241Z,28.97
2018-11-25T00:26:49.810Z,23.17
2018-11-25T00:29:17.293Z,20.63
2018-11-25T00:31:45.520Z,22.17
2018-11-25T00:34:13.014Z,24.37
2018-11-25T00:36:40.487Z,27.10
2018-11-25T00:39:09.575Z,28.43
2018-11-25T00:41:37.865Z,23.67
2018-11-25T00:44:05.323Z,27.03
2018-11-25T00:46:32.890Z,21.33
2018-11-25T00:49:00.352Z,20.60
2018-11-25T00:51:28.577Z,22.20
2018-11-25T00:53:56.133Z,18.50
2018-11-25T00:56:23.590Z,25.13
2018-11-25T00:58:51.063Z,21.13
2018-11-25T01:01:19.306Z,19.50
2018-11-25T01:03:46.781Z,28.77
2018-11-25T01:06:14.253Z,22.23
2018-11-25T01:08:41.724Z,22.00
2018-11-25T01:11:09.189Z,23.33
2018-11-25T01:13:37.070Z,24.77
2018-11-25T01:16:04.521Z,24.27
2018-11-25T01:18:31.996Z,26.30
2018-11-25T01:20:59.453Z,25.00
2018-11-25T01:23:26.956Z,21.23
2018-11-25T01:25:54.419Z,26.83
2018-11-25T01:28:21.885Z,23.30
2018-11-25T01:30:50.119Z,24.97
2018-11-25T01:33:17.617Z,19.93
2018-11-25T01:35:45.080Z,19.90
2018-11-25T01:38:12.542Z,27.87
2018-11-25T01:40:40.102Z,22.87
2018-11-25T01:43:07.582Z,24.07
2018-11-25T01:45:35.127Z,24.87
2018-11-25T01:48:03.605Z,24.03
2018-11-25T01:50:31.079Z,25.50
2018-11-25T01:52:58.691Z,22.07
2018-11-25T01:55:26.175Z,26.43
2018-11-25T01:57:53.626Z,24.90
2018-11-25T02:00:21.130Z,23.77
2018-11-25T02:02:48.597Z,23.40
2018-11-25T02:05:16.068Z,22.83
2018-11-25T02:07:43.603Z,24.07
2018-11-25T02:10:11.178Z,30.87
2018-11-25T02:12:38.648Z,25.00
2018-11-25T02:15:06.136Z,26.37
2018-11-25T02:17:34.424Z,26.43
2018-11-25T02:20:01.862Z,26.63
2018-11-25T02:22:29.344Z,25.33
2018-11-25T02:24:57.588Z,25.50
2018-11-25T02:27:25.053Z,24.93
2018-11-25T02:29:52.524Z,32.33
2018-11-25T02:32:20.001Z,27.47
2018-11-25T02:34:48.240Z,27.07
2018-11-25T02:37:15.711Z,28.30
2018-11-25T02:39:43.184Z,21.67
2018-11-25T02:42:10.644Z,23.03
2018-11-25T02:44:38.113Z,24.80
2018-11-25T02:47:06.368Z,26.03
2018-11-25T02:49:33.892Z,23.67
2018-11-25T02:52:01.408Z,25.20
2018-11-25T02:54:28.889Z,26.70
2018-11-25T02:56:57.155Z,24.20
2018-11-25T02:59:24.631Z,22.23
2018-11-25T03:01:52.889Z,23.97
2018-11-25T03:04:20.450Z,26.40
2018-11-25T03:06:48.741Z,24.43
2018-11-25T03:09:16.245Z,20.73
2018-11-25T03:11:43.702Z,26.77
2018-11-25T03:14:11.190Z,27.00
2018-11-25T03:16:38.659Z,25.47
2018-11-25T03:19:06.129Z,26.13
2018-11-25T03:21:33.613Z,24.90
2018-11-25T03:24:01.062Z,27.83
2018-11-25T03:26:28.636Z,26.83
2018-11-25T03:28:56.085Z,26.13
2018-11-25T03:31:23.570Z,24.70
2018-11-25T03:33:51.116Z,25.73
2018-11-25T03:36:18.586Z,26.20
2018-11-25T03:38:46.148Z,24.20
2018-11-25T03:41:15.123Z,20.75
2018-11-25T03:43:42.584Z,24.20
2018-11-25T03:46:10.070Z,23.87
2018-11-25T03:48:37.526Z,27.87
2018-11-25T03:51:05.010Z,23.37
2018-11-25T03:53:33.241Z,25.40
2018-11-25T03:56:00.728Z,27.40
2018-11-25T03:58:28.193Z,25.97
2018-11-25T04:00:55.657Z,22.97
2018-11-25T04:03:23.205Z,25.93
2018-11-25T04:05:50.678Z,23.40
2018-11-25T04:08:18.191Z,28.10
2018-11-25T04:10:45.706Z,24.50
2018-11-25T04:13:13.989Z,24.87
2018-11-25T04:15:41.448Z,26.50
2018-11-25T04:18:08.920Z,29.97
2018-11-25T04:20:37.189Z,31.77
2018-11-25T04:23:06.343Z,30.83
2018-11-25T04:25:33.814Z,23.50
2018-11-25T04:28:01.276Z,27.30
2018-11-25T04:30:28.776Z,29.20
2018-11-25T04:32:56.238Z,25.00
2018-11-25T04:35:23.717Z,21.57
2018-11-25T04:37:51.953Z,22.80
2018-11-25T04:40:19.488Z,24.20
2018-11-25T04:42:47.002Z,22.30
2018-11-25T04:45:14.465Z,26.60
2018-11-25T04:47:41.925Z,26.53
2018-11-25T04:50:09.382Z,20.17
2018-11-25T04:52:36.856Z,25.67
2018-11-25T04:55:04.405Z,28.13
2018-11-25T04:57:33.373Z,20.67
2018-11-25T05:00:00.869Z,22.43
2018-11-25T05:02:28.333Z,26.50
2018-11-25T05:04:55.810Z,26.53
2018-11-25T05:07:24.063Z,27.73
2018-11-25T05:09:51.688Z,23.93
2018-11-25T05:12:19.208Z,22.03
2018-11-25T05:14:46.673Z,20.37
2018-11-25T05:17:14.141Z,18.27
2018-11-25T05:19:41.620Z,20.97
2018-11-25T05:22:09.850Z,23.17
2018-11-25T05:24:37.317Z,20.60
2018-11-25T05:27:04.783Z,23.70
2018-11-25T05:29:32.240Z,21.93
2018-11-25T05:31:59.698Z,16.87
2018-11-25T05:34:27.276Z,17.03
2018-11-25T05:36:54.741Z,20.17
2018-11-25T05:39:22.974Z,18.43
2018-11-25T05:41:50.435Z,18.23
2018-11-25T05:44:17.940Z,22.07
2018-11-25T05:46:45.427Z,19.07
2018-11-25T05:49:13.693Z,15.82
2018-11-25T05:51:41.147Z,18.10
2018-11-25T05:54:09.380Z,19.30
2018-11-25T05:56:36.843Z,19.40
2018-11-25T05:59:04.350Z,19.27
2018-11-25T06:01:31.826Z,16.10
2018-11-25T06:04:00.054Z,17.37
2018-11-25T06:06:27.519Z,15.83
2018-11-25T06:08:54.991Z,15.43
2018-11-25T06:11:22.460Z,17.17
2018-11-25T06:13:49.932Z,17.83
2018-11-25T06:16:17.401Z,14.07
2018-11-25T06:18:44.875Z,19.93
2018-11-25T06:21:12.328Z,17.50
2018-11-25T06:23:39.798Z,14.63
2018-11-25T06:26:08.032Z,15.80
2018-11-25T06:28:35.489Z,18.10
2018-11-25T06:31:03.875Z,18.12
2018-11-25T06:33:31.347Z,13.90
2018-11-25T06:35:58.800Z,17.23
2018-11-25T06:38:26.282Z,14.70
2018-11-25T06:40:53.856Z,18.70
2018-11-25T06:43:21.363Z,12.53
2018-11-25T06:45:48.859Z,17.90
2018-11-25T06:48:16.329Z,15.23
2018-11-25T06:50:43.895Z,15.57
2018-11-25T06:53:11.364Z,15.00
2018-11-25T06:55:38.830Z,15.50
2018-11-25T06:58:07.812Z,13.57
2018-11-25T07:00:35.277Z,15.17
2018-11-25T07:03:02.741Z,13.20
2018-11-25T07:05:30.195Z,16.33
2018-11-25T07:07:57.767Z,15.20
2018-11-25T07:10:25.232Z,16.73
2018-11-25T07:12:53.512Z,17.07
2018-11-25T07:15:20.977Z,15.03
2018-11-25T07:17:48.427Z,19.90
2018-11-25T07:20:16.000Z,17.97
2018-11-25T07:22:43.470Z,17.07
2018-11-25T07:25:10.929Z,20.33
2018-11-25T07:27:38.481Z,22.33
2018-11-25T07:30:07.755Z,22.23
2018-11-25T07:32:34.212Z,21.27
2018-11-25T07:35:01.932Z,20.50
2018-11-25T07:37:30.188Z,17.43
2018-11-25T07:39:57.646Z,18.47
2018-11-25T07:42:25.108Z,15.30
2018-11-25T07:44:52.584Z,18.77
2018-11-25T07:47:20.825Z,18.63
2018-11-25T07:49:48.295Z,19.83
2018-11-25T07:52:15.755Z,19.17
2018-11-25T07:54:46.628Z,18.17
2018-11-25T07:57:14.858Z,18.73
2018-11-25T07:59:42.434Z,16.20
2018-11-25T08:02:09.885Z,20.57
2018-11-25T08:04:37.361Z,14.50
2018-11-25T08:07:04.922Z,14.87
2018-11-25T08:09:32.380Z,15.67
2018-11-25T08:11:59.958Z,11.87
2018-11-25T08:14:27.413Z,16.80
2018-11-25T08:16:54.880Z,13.47
2018-11-25T08:19:22.333Z,16.80
2018-11-25T08:21:49.809Z,13.80
2018-11-25T08:24:17.257Z,14.40
2018-11-25T08:26:45.529Z,12.73
2018-11-25T08:29:12.997Z,12.77
2018-11-25T08:31:40.553Z,12.40
2018-11-25T08:34:08.021Z,14.47
2018-11-25T08:36:35.585Z,11.70
2018-11-25T08:39:03.975Z,19.83
2018-11-25T08:41:31.447Z,11.67
2018-11-25T08:43:59.656Z,15.83
2018-11-25T08:46:27.243Z,13.93
2018-11-25T08:48:54.704Z,13.50
2018-11-25T08:51:22.221Z,14.17
2018-11-25T08:53:49.680Z,12.73
2018-11-25T08:56:17.944Z,14.68
2018-11-25T08:58:45.411Z,13.20
2018-11-25T09:01:12.880Z,11.73
2018-11-25T09:03:40.340Z,11.60
2018-11-25T09:06:07.949Z,10.40
2018-11-25T09:08:36.277Z,16.53
2018-11-25T09:11:04.641Z,14.57
2018-11-25T09:13:32.100Z,16.00
2018-11-25T09:15:59.586Z,17.03
2018-11-25T09:18:27.095Z,16.77
2018-11-25T09:20:55.421Z,12.07
2018-11-25T09:23:22.870Z,13.27
2018-11-25T09:25:50.327Z,13.37
2018-11-25T09:28:17.798Z,14.40
2018-11-25T09:30:45.268Z,12.63
2018-11-25T09:33:12.720Z,14.23
2018-11-25T09:35:40.195Z,13.73
2018-11-25T09:38:07.654Z,16.60
2018-11-25T09:40:35.114Z,16.17
2018-11-25T09:43:02.671Z,11.60
2018-11-25T09:45:30.131Z,17.90
2018-11-25T09:47:57.604Z,16.83
2018-11-25T09:50:25.074Z,16.13
2018-11-25T09:52:52.530Z,16.10
2018-11-25T09:55:19.996Z,16.17
2018-11-25T09:57:47.463Z,19.20
2018-11-25T10:00:15.010Z,17.17
2018-11-25T10:02:42.592Z,16.87
2018-11-25T10:05:10.140Z,15.70
2018-11-25T10:07:37.704Z,19.87
2018-11-25T10:10:05.272Z,19.77
2018-11-25T10:12:32.751Z,23.43
2018-11-25T10:15:01.010Z,19.03
2018-11-25T10:17:28.479Z,21.23
2018-11-25T10:19:55.957Z,20.43
2018-11-25T10:22:24.228Z,18.70
2018-11-25T10:24:51.739Z,31.40
2018-11-25T10:27:19.198Z,17.50
2018-11-25T10:29:46.658Z,21.17
2018-11-25T10:32:14.177Z,16.47
2018-11-25T10:34:41.639Z,21.73
2018-11-25T10:37:09.401Z,20.67
2018-11-25T10:39:37.626Z,16.67
2018-11-25T10:42:05.091Z,23.17
2018-11-25T10:44:32.553Z,18.70
2018-11-25T10:47:00.053Z,21.63
2018-11-25T10:49:27.511Z,15.73
2018-11-25T10:51:55.003Z,20.47
2018-11-25T10:54:22.456Z,18.27
2018-11-25T10:56:50.001Z,13.17
2018-11-25T10:59:17.583Z,21.40
2018-11-25T11:01:46.542Z,25.00
2018-11-25T11:04:14.011Z,24.03
2018-11-25T11:06:41.469Z,20.47
2018-11-25T11:09:08.988Z,21.73
2018-11-25T11:11:37.221Z,20.63
2018-11-25T11:14:04.928Z,22.93
2018-11-25T11:16:33.199Z,28.67
2018-11-25T11:19:00.644Z,23.47
2018-11-25T11:21:28.880Z,25.30
2018-11-25T11:23:56.337Z,20.90
2018-11-25T11:26:23.848Z,24.90
2018-11-25T11:28:51.334Z,24.53
2018-11-25T11:31:18.794Z,21.00
2018-11-25T11:33:47.043Z,18.63
2018-11-25T11:36:14.610Z,20.70
2018-11-25T11:38:42.860Z,21.40
2018-11-25T11:41:10.359Z,17.07
2018-11-25T11:43:37.909Z,18.63
2018-11-25T11:46:05.388Z,20.80
2018-11-25T11:48:32.844Z,19.43
2018-11-25T11:51:00.384Z,20.07
2018-11-25T11:53:27.845Z,18.40
2018-11-25T11:55:55.315Z,20.83
2018-11-25T11:58:23.916Z,22.27
2018-11-25T12:00:51.468Z,21.97
2018-11-25T12:03:26.297Z,13.70
2018-11-25T12:05:46.453Z,18.50
2018-11-25T12:08:13.932Z,20.37
2018-11-25T12:10:41.426Z,19.80
2018-11-25T12:13:08.989Z,18.10
2018-11-25T12:15:36.452Z,16.70
2018-11-25T12:18:04.785Z,19.00
2018-11-25T12:20:32.258Z,19.20
2018-11-25T12:22:59.719Z,17.23
2018-11-25T12:25:27.212Z,18.93
2018-11-25T12:27:54.782Z,20.30
2018-11-25T12:30:22.244Z,21.37
2018-11-25T12:32:50.479Z,17.83
2018-11-25T12:35:17.945Z,23.63
2018-11-25T12:37:45.397Z,19.87
2018-11-25T12:40:12.879Z,21.87
2018-11-25T12:42:41.112Z,23.43
2018-11-25T12:45:09.349Z,17.33
2018-11-25T12:47:36.810Z,23.47
2018-11-25T12:50:04.278Z,26.67
2018-11-25T12:52:31.886Z,24.90
2018-11-25T12:55:00.105Z,22.50
2018-11-25T12:57:27.701Z,29.75
2018-11-25T12:59:55.162Z,23.83
2018-11-25T13:02:22.728Z,27.83
2018-11-25T13:04:50.280Z,21.67
2018-11-25T13:07:17.757Z,23.43
2018-11-25T13:09:46.017Z,28.40
2018-11-25T13:12:13.548Z,28.83
2018-11-25T13:14:41.015Z,26.73
2018-11-25T13:17:08.474Z,31.20
2018-11-25T13:19:35.926Z,21.13
2018-11-25T13:22:04.641Z,29.45
2018-11-25T13:24:32.110Z,26.00
2018-11-25T13:26:59.690Z,26.63
2018-11-25T13:29:27.256Z,21.13
2018-11-25T13:31:54.833Z,22.80
2018-11-25T13:34:22.301Z,28.37
2018-11-25T13:36:50.526Z,24.80
2018-11-25T13:39:18.029Z,23.50
2018-11-25T13:41:45.496Z,24.60
2018-11-25T13:44:12.981Z,25.20
2018-11-25T13:46:41.192Z,26.50
2018-11-25T13:49:08.661Z,35.20
2018-11-25T13:51:36.116Z,26.00
2018-11-25T13:54:04.697Z,28.12
2018-11-25T13:56:32.149Z,28.93
2018-11-25T13:58:59.655Z,29.63
2018-11-25T14:01:27.218Z,26.93
2018-11-25T14:03:54.679Z,22.27
2018-11-25T14:06:22.905Z,26.43
2018-11-25T14:08:50.390Z,21.60
2018-11-25T14:11:17.865Z,23.47
2018-11-25T14:13:45.325Z,25.30
2018-11-25T14:16:12.896Z,23.33
2018-11-25T14:18:40.366Z,31.17
2018-11-25T14:21:07.939Z,20.00
2018-11-25T14:23:35.509Z,29.57
2018-11-25T14:26:04.401Z,30.20
2018-11-25T14:28:31.955Z,29.57
2018-11-25T14:30:59.429Z,29.70
2018-11-25T14:33:26.987Z,28.93
2018-11-25T14:35:56.650Z,23.47
2018-11-25T14:38:24.160Z,26.03
2018-11-25T14:40:51.723Z,27.47
2018-11-25T14:43:19.994Z,31.80
2018-11-25T14:45:47.463Z,34.40
2018-11-25T14:48:14.923Z,27.10
2018-11-25T14:50:42.383Z,29.83
2018-11-25T14:53:09.860Z,26.90
2018-11-25T14:55:37.409Z,26.77
2018-11-25T14:58:04.949Z,29.70
2018-11-25T15:00:32.435Z,31.80
2018-11-25T15:03:00.004Z,28.07
2018-11-25T15:05:27.559Z,31.83
2018-11-25T15:07:55.141Z,30.90
2018-11-25T15:10:22.619Z,34.77
2018-11-25T15:12:50.843Z,32.33
2018-11-25T15:15:18.316Z,29.43
2018-11-25T15:17:45.778Z,30.00
2018-11-25T15:20:13.399Z,32.50
2018-11-25T15:22:40.829Z,29.73
2018-11-25T15:25:08.294Z,33.10
2018-11-25T15:27:35.787Z,36.20
2018-11-25T15:30:04.638Z,33.58
2018-11-25T15:32:32.109Z,40.20
2018-11-25T15:35:00.363Z,32.90
2018-11-25T15:37:27.845Z,35.70
2018-11-25T15:39:55.384Z,34.27
2018-11-25T15:42:22.861Z,35.40
2018-11-25T15:44:50.321Z,27.53
2018-11-25T15:47:17.890Z,28.57
2018-11-25T15:49:45.367Z,29.93
2018-11-25T15:52:13.590Z,31.03
2018-11-25T15:54:41.096Z,38.80
2018-11-25T15:57:08.561Z,35.67
2018-11-25T15:59:37.543Z,29.60
2018-11-25T16:02:05.140Z,41.30
2018-11-25T16:04:32.604Z,30.27
2018-11-25T16:07:00.835Z,34.20
2018-11-25T16:09:28.329Z,28.27
2018-11-25T16:11:55.781Z,36.57
2018-11-25T16:14:23.249Z,34.27
2018-11-25T16:16:51.503Z,32.17
2018-11-25T16:19:19.001Z,33.50
2018-11-25T16:21:46.547Z,36.03
2018-11-25T16:24:14.162Z,35.17
2018-11-25T16:26:41.678Z,38.87
2018-11-25T16:29:09.237Z,36.57
2018-11-25T16:31:36.706Z,36.60
2018-11-25T16:34:05.664Z,38.00
2018-11-25T16:36:33.160Z,36.30
2018-11-25T16:39:00.629Z,32.67
2018-11-25T16:41:29.611Z,36.53
2018-11-25T16:43:57.063Z,40.37
2018-11-25T16:46:24.915Z,42.63
2018-11-25T16:48:52.364Z,30.73
2018-11-25T16:51:19.830Z,36.13
2018-11-25T16:53:47.297Z,32.77
2018-11-25T16:56:14.776Z,33.33
2018-11-25T16:58:42.230Z,37.30
2018-11-25T17:01:10.238Z,33.67
2018-11-25T17:03:37.189Z,32.00
2018-11-25T17:06:04.748Z,40.77
2018-11-25T17:08:32.307Z,33.83
2018-11-25T17:10:59.874Z,37.00
2018-11-25T17:13:27.340Z,36.33
2018-11-25T17:15:55.562Z,44.97
2018-11-25T17:18:23.026Z,39.33
2018-11-25T17:20:50.486Z,37.20
2018-11-25T17:23:17.959Z,35.03
2018-11-25T17:25:45.411Z,38.70
2018-11-25T17:28:12.885Z,34.33
2018-11-25T17:30:40.344Z,30.40
2018-11-25T17:33:07.848Z,34.03
2018-11-25T17:35:36.076Z,35.57
2018-11-25T17:38:04.812Z,34.63
2018-11-25T17:40:32.278Z,37.87
2018-11-25T17:42:59.730Z,39.83
2018-11-25T17:45:28.039Z,30.60
2018-11-25T17:47:55.489Z,32.90
2018-11-25T17:50:23.050Z,32.70
2018-11-25T17:52:50.515Z,34.63
2018-11-25T17:55:18.772Z,38.13
2018-11-25T17:57:46.236Z,36.60
2018-11-25T18:00:13.713Z,32.53
2018-11-25T18:02:41.181Z,37.17
2018-11-25T18:05:08.645Z,35.47
2018-11-25T18:07:37.732Z,49.23
2018-11-25T18:10:05.201Z,40.37
2018-11-25T18:12:32.751Z,39.03
2018-11-25T18:15:00.206Z,39.37
2018-11-25T18:17:27.779Z,37.57
2018-11-25T18:19:55.254Z,34.57
2018-11-25T18:22:22.723Z,37.47
2018-11-25T18:24:50.265Z,38.13
2018-11-25T18:27:17.835Z,32.00
2018-11-25T18:29:45.320Z,38.67
2018-11-25T18:32:12.786Z,39.23
2018-11-25T18:34:41.015Z,40.10
2018-11-25T18:37:08.598Z,39.17
2018-11-25T18:39:36.180Z,42.70
2018-11-25T18:42:04.437Z,27.50
2018-11-25T18:44:32.015Z,33.33
2018-11-25T18:46:59.572Z,33.77
2018-11-25T18:49:27.133Z,40.57
2018-11-25T18:51:56.124Z,36.17
2018-11-25T18:54:23.591Z,33.50
2018-11-25T18:56:51.071Z,37.17
2018-11-25T18:59:18.532Z,31.97
2018-11-25T19:01:46.809Z,36.07
2018-11-25T19:04:15.781Z,37.00
2018-11-25T19:06:43.259Z,41.13
2018-11-25T19:09:11.030Z,43.97
2018-11-25T19:11:38.484Z,41.43
2018-11-25T19:14:05.965Z,38.20
2018-11-25T19:16:33.429Z,33.27
2018-11-25T19:19:01.663Z,39.13
2018-11-25T19:21:29.122Z,35.50
2018-11-25T19:23:56.593Z,38.47
2018-11-25T19:26:24.049Z,32.03
2018-11-25T19:28:51.849Z,37.87
2018-11-25T19:31:19.410Z,32.70
2018-11-25T19:33:46.865Z,37.07
2018-11-25T19:36:14.328Z,33.53
2018-11-25T19:38:41.802Z,40.80
2018-11-25T19:41:10.904Z,32.60
2018-11-25T19:43:38.369Z,33.77
2018-11-25T19:46:05.837Z,35.57
2018-11-25T19:48:34.069Z,47.07
2018-11-25T19:51:01.539Z,36.70
2018-11-25T19:53:29.022Z,40.13
2018-11-25T19:55:56.571Z,38.80
2018-11-25T19:58:25.189Z,39.27
2018-11-25T20:00:52.664Z,41.23
2018-11-25T20:03:20.884Z,40.60
2018-11-25T20:05:48.351Z,40.43
2018-11-25T20:08:15.820Z,32.60
2018-11-25T20:10:43.282Z,46.67
2018-11-25T20:13:11.927Z,40.63
2018-11-25T20:15:38.228Z,36.37
2018-11-25T20:18:05.697Z,45.13
2018-11-25T20:20:33.176Z,34.47
2018-11-25T20:23:01.405Z,35.30
2018-11-25T20:25:28.873Z,39.23
2018-11-25T20:27:56.434Z,43.33
2018-11-25T20:30:23.913Z,32.13
2018-11-25T20:32:57.217Z,34.43
2018-11-25T20:35:24.672Z,37.70
2018-11-25T20:37:52.901Z,31.93
2018-11-25T20:40:20.365Z,33.43
2018-11-25T20:42:47.868Z,36.17
2018-11-25T20:45:15.316Z,38.58
2018-11-25T20:47:42.786Z,40.40
2018-11-25T20:50:10.352Z,34.27
2018-11-25T20:52:43.543Z,42.83
2018-11-25T20:55:11.113Z,40.37
2018-11-25T20:57:38.566Z,39.70
2018-11-25T21:00:06.046Z,37.60
2018-11-25T21:02:33.595Z,37.83
2018-11-25T21:05:01.059Z,34.30
2018-11-25T21:07:28.637Z,31.37
2018-11-25T21:09:56.100Z,42.37
2018-11-25T21:12:23.652Z,36.50
2018-11-25T21:14:51.423Z,31.87
2018-11-25T21:17:18.911Z,35.13
2018-11-25T21:19:47.146Z,32.63
2018-11-25T21:22:14.620Z,38.80
2018-11-25T21:24:42.181Z,32.63
2018-11-25T21:27:09.646Z,35.93
2018-11-25T21:29:37.197Z,41.20
2018-11-25T21:32:04.661Z,36.80
2018-11-25T21:34:32.122Z,33.87
2018-11-25T21:36:59.585Z,34.20
2018-11-25T21:39:27.067Z,33.17
2018-11-25T21:41:55.286Z,41.37
2018-11-25T21:44:22.745Z,39.83
2018-11-25T21:46:50.215Z,34.73
2018-11-25T21:49:17.669Z,38.50
2018-11-25T21:51:45.135Z,35.03
2018-11-25T21:54:12.947Z,41.67
2018-11-25T21:56:40.408Z,40.50
2018-11-25T21:59:07.876Z,31.60
2018-11-25T22:01:35.338Z,32.10
2018-11-25T22:04:03.817Z,36.20
2018-11-25T22:06:31.380Z,41.33
2018-11-25T22:08:58.827Z,33.57
2018-11-25T22:11:26.402Z,36.57
2018-11-25T22:13:53.973Z,36.37
2018-11-25T22:16:21.437Z,48.37
2018-11-25T22:18:48.908Z,37.90
2018-11-25T22:21:16.464Z,43.33
2018-11-25T22:23:44.014Z,41.57
2018-11-25T22:26:11.491Z,38.57
2018-11-25T22:28:39.049Z,45.70
2018-11-25T22:31:06.609Z,34.27
2018-11-25T22:33:34.185Z,42.50
2018-11-25T22:36:01.749Z,39.50
2018-11-25T22:38:29.211Z,34.47
2018-11-25T22:40:56.680Z,39.20
2018-11-25T22:43:24.139Z,41.43
2018-11-25T22:45:51.684Z,41.30
2018-11-25T22:48:19.261Z,41.33
2018-11-25T22:50:46.737Z,44.63
2018-11-25T22:53:14.284Z,36.57
2018-11-25T22:55:41.800Z,45.93
2018-11-25T22:58:09.258Z,48.07
2018-11-25T23:00:36.730Z,48.97
2018-11-25T23:03:04.598Z,45.23
2018-11-25T23:05:43.937Z,48.22
2018-11-25T23:08:11.397Z,43.00
2018-11-25T23:10:38.858Z,46.33
2018-11-25T23:13:06.325Z,45.93
2018-11-25T23:15:33.794Z,44.70
2018-11-25T23:18:01.265Z,42.23
2018-11-25T23:20:28.725Z,38.47
2018-11-25T23:22:56.306Z,44.80
2018-11-25T23:25:23.971Z,38.97
2018-11-25T23:27:51.442Z,38.33
2018-11-25T23:30:18.908Z,39.47
2018-11-25T23:32:46.460Z,45.07
2018-11-25T23:35:13.925Z,44.87
2018-11-25T23:37:41.392Z,36.43
2018-11-25T23:40:08.844Z,37.23
2018-11-25T23:42:37.818Z,37.17
2018-11-25T23:45:05.281Z,39.13
2018-11-25T23:47:32.865Z,43.77
2018-11-25T23:50:00.427Z,39.07
2018-11-25T23:52:27.888Z,43.53
2018-11-25T23:54:55.443Z,39.50
2018-11-25T23:57:23.029Z,41.17
2018-11-25T23:59:50.488Z,37.43
